Time;durP1;ratioP1;P1;durP2;ratioP2;P2;SDS_P1;SDS_P2;PMS_P1;PMS_P2;Temp;Humidity;BMP_temperature;BMP_pressure;BME280_temperature;BME280_humidity;BME280_pressure;Samples;Min_cycle;Max_cycle;Signal;HPM_P1;HPM_P2
2021/08/28 00:00:13;;;;;;;20.98;6.10;;;14.20;99.80;;;;;;4954782;29;20055;-81
2021/08/28 00:02:42;;;;;;;19.98;5.25;;;14.20;99.80;;;;;;4973901;28;20059;-81
2021/08/28 00:05:11;;;;;;;17.88;5.05;;;14.10;99.90;;;;;;4953865;29;20036;-81
2021/08/28 00:07:41;;;;;;;18.83;4.60;;;14.00;99.90;;;;;;4967778;28;20047;-82
2021/08/28 00:10:11;;;;;;;20.92;4.80;;;14.00;99.90;;;;;;4955631;28;20073;-81
2021/08/28 00:12:40;;;;;;;15.68;6.05;;;13.90;99.90;;;;;;4946049;29;20051;-80
2021/08/28 00:15:13;;;;;;;17.95;4.72;;;13.80;99.90;;;;;;4980207;28;20043;-81
2021/08/28 00:17:46;;;;;;;16.73;4.03;;;13.80;99.90;;;;;;4949631;29;20054;-82
2021/08/28 00:20:41;;;;;;;13.68;5.57;;;13.80;99.90;;;;;;4966751;28;20354;-80
2021/08/28 00:23:11;;;;;;;11.57;4.43;;;13.70;99.90;;;;;;4962718;28;20058;-81
2021/08/28 00:25:40;;;;;;;27.00;4.95;;;13.70;99.90;;;;;;4965949;28;20047;-81
2021/08/28 00:28:12;;;;;;;23.15;6.07;;;13.60;99.90;;;;;;4965099;28;20051;-81
2021/08/28 00:30:58;;;;;;;32.00;7.95;;;13.60;99.90;;;;;;4954770;28;20086;-81
2021/08/28 00:33:26;;;;;;;22.90;5.13;;;13.50;99.90;;;;;;4969318;28;20054;-81
2021/08/28 00:35:54;;;;;;;13.63;4.53;;;13.40;99.90;;;;;;4979381;28;20043;-80
2021/08/28 00:38:26;;;;;;;16.15;4.47;;;13.40;99.90;;;;;;4981022;28;20116;-80
2021/08/28 00:40:56;;;;;;;13.43;5.10;;;13.40;99.90;;;;;;4953677;28;20031;-81
2021/08/28 00:43:29;;;;;;;21.13;4.82;;;13.30;99.90;;;;;;4956527;28;20057;-81
2021/08/28 00:45:59;;;;;;;16.45;5.88;;;13.30;99.90;;;;;;4980332;28;20055;-81
2021/08/28 00:48:28;;;;;;;16.27;5.40;;;13.30;99.90;;;;;;4968039;28;20055;-80
2021/08/28 00:50:59;;;;;;;12.90;5.47;;;13.30;99.90;;;;;;4954604;28;20059;-80
2021/08/28 00:53:34;;;;;;;18.35;5.85;;;13.30;99.90;;;;;;4955236;29;20062;-81
2021/08/28 00:56:04;;;;;;;17.48;6.45;;;13.20;99.90;;;;;;4986378;28;20054;-81
2021/08/28 00:58:32;;;;;;;20.80;6.45;;;13.30;99.90;;;;;;4983724;28;20047;-80
2021/08/28 01:01:20;;;;;;;22.33;6.78;;;13.30;99.90;;;;;;4970770;28;20043;-80
2021/08/28 01:03:57;;;;;;;20.00;6.10;;;13.20;99.90;;;;;;4971323;28;20053;-81
2021/08/28 01:06:52;;;;;;;23.33;6.82;;;13.20;99.90;;;;;;4969888;28;20044;-82
2021/08/28 01:09:52;;;;;;;14.95;6.07;;;12.50;99.90;;;;;;4973641;28;20047;-80
2021/08/28 01:12:42;;;;;;;26.25;5.88;;;13.20;99.90;;;;;;4960322;28;20043;-82
2021/08/28 01:15:22;;;;;;;22.50;6.72;;;13.30;99.90;;;;;;4958614;29;20047;-81
2021/08/28 01:17:53;;;;;;;18.02;5.95;;;13.20;99.90;;;;;;4972992;28;20062;-81
2021/08/28 01:20:44;;;;;;;22.00;5.47;;;13.20;99.90;;;;;;4958321;29;20061;-81
2021/08/28 01:23:35;;;;;;;20.67;6.13;;;12.80;99.90;;;;;;4942342;28;20397;-81
2021/08/28 01:26:19;;;;;;;17.33;4.97;;;13.20;99.90;;;;;;4972702;28;20039;-81
2021/08/28 01:29:00;;;;;;;14.05;4.88;;;13.10;99.90;;;;;;4969972;28;20047;-80
2021/08/28 01:31:31;;;;;;;13.50;5.38;;;13.10;99.90;;;;;;4972156;28;20381;-81
2021/08/28 01:34:04;;;;;;;22.15;6.43;;;13.00;99.90;;;;;;4955374;29;20077;-81
2021/08/28 01:36:36;;;;;;;12.10;4.97;;;12.90;99.90;;;;;;4968086;28;20237;-81
2021/08/28 01:39:18;;;;;;;14.35;5.75;;;12.90;99.90;;;;;;4960188;28;20047;-81
2021/08/28 01:41:50;;;;;;;18.95;5.88;;;12.90;99.90;;;;;;4955110;28;20058;-81
2021/08/28 01:44:28;;;;;;;20.70;6.20;;;12.90;99.90;;;;;;4970240;28;20050;-79
2021/08/28 01:47:03;;;;;;;17.73;5.55;;;12.80;99.90;;;;;;4963332;28;20044;-81
2021/08/28 01:49:35;;;;;;;21.95;6.35;;;12.80;99.90;;;;;;4957179;28;20051;-81
2021/08/28 01:52:05;;;;;;;21.10;6.85;;;12.80;99.90;;;;;;4967741;29;20055;-81
2021/08/28 01:54:44;;;;;;;20.00;5.05;;;12.80;99.90;;;;;;4956945;29;20047;-82
2021/08/28 01:57:18;;;;;;;18.58;5.78;;;12.80;99.90;;;;;;4964380;28;20044;-81
2021/08/28 02:00:13;;;;;;;16.80;4.68;;;12.80;99.90;;;;;;4938398;29;20058;-81
2021/08/28 02:02:42;;;;;;;21.05;6.75;;;12.80;99.90;;;;;;4947220;29;20071;-81
2021/08/28 02:05:12;;;;;;;17.58;7.38;;;12.80;99.90;;;;;;4951440;28;20048;-81
2021/08/28 02:08:00;;;;;;;21.45;6.43;;;12.80;99.90;;;;;;4945176;29;20051;-81
2021/08/28 02:10:45;;;;;;;16.08;5.10;;;12.70;99.90;;;;;;4973165;28;20048;-81
2021/08/28 02:13:24;;;;;;;19.23;5.35;;;12.70;99.90;;;;;;4946490;29;20055;-81
2021/08/28 02:16:02;;;;;;;18.52;5.28;;;12.70;99.90;;;;;;4933022;29;20056;-81
2021/08/28 02:18:44;;;;;;;12.82;4.53;;;12.70;99.90;;;;;;4962284;28;20052;-81
2021/08/28 02:21:27;;;;;;;11.93;6.30;;;12.60;99.90;;;;;;4931664;29;20059;-81
2021/08/28 02:24:06;;;;;;;17.50;6.05;;;12.60;99.90;;;;;;4951345;29;20059;-81
2021/08/28 02:26:52;;;;;;;11.82;5.35;;;12.60;99.90;;;;;;4953280;29;20056;-81
2021/08/28 02:29:35;;;;;;;15.88;4.88;;;12.50;99.90;;;;;;4972290;28;20056;-81
2021/08/28 02:32:07;;;;;;;22.70;6.18;;;12.50;99.90;;;;;;4933799;29;20040;-81
2021/08/28 02:34:47;;;;;;;19.90;5.57;;;12.50;99.90;;;;;;4948478;29;20044;-80
2021/08/28 02:37:16;;;;;;;23.10;5.10;;;12.40;99.90;;;;;;4963039;28;20056;-80
2021/08/28 02:39:46;;;;;;;27.75;5.55;;;12.40;99.90;;;;;;4944728;29;20044;-81
2021/08/28 02:42:17;;;;;;;18.60;6.70;;;12.40;99.90;;;;;;4949170;29;20055;-81
2021/08/28 02:44:46;;;;;;;21.42;5.93;;;12.30;99.90;;;;;;4953802;29;20043;-81
2021/08/28 02:47:20;;;;;;;25.88;6.07;;;12.30;99.90;;;;;;4956174;29;20049;-81
2021/08/28 02:49:51;;;;;;;25.52;5.22;;;12.30;99.90;;;;;;4956317;28;20051;-81
2021/08/28 02:52:47;;;;;;;15.32;5.30;;;12.60;99.90;;;;;;4989273;28;20062;-81
2021/08/28 02:55:19;;;;;;;28.73;7.03;;;12.10;99.90;;;;;;4985946;28;20056;-80
2021/08/28 02:57:52;;;;;;;18.33;5.85;;;12.20;99.90;;;;;;4991776;28;20062;-81
2021/08/28 03:00:23;;;;;;;20.67;8.50;;;12.20;99.90;;;;;;4944487;28;20058;-81
2021/08/28 03:02:52;;;;;;;22.55;6.18;;;12.20;99.90;;;;;;4980463;28;20050;-81
2021/08/28 03:05:21;;;;;;;18.00;5.55;;;12.20;99.90;;;;;;4984989;28;20043;-81
2021/08/28 03:07:53;;;;;;;25.33;6.80;;;12.20;99.90;;;;;;4955049;28;20066;-81
2021/08/28 03:10:22;;;;;;;17.73;7.63;;;12.20;99.90;;;;;;4964789;28;20046;-78
2021/08/28 03:12:51;;;;;;;19.92;6.18;;;12.20;99.90;;;;;;4963002;28;20065;-81
2021/08/28 03:15:21;;;;;;;24.27;6.80;;;12.20;99.90;;;;;;4971542;28;20046;-80
2021/08/28 03:18:07;;;;;;;17.38;6.10;;;12.20;99.90;;;;;;4972656;28;20065;-81
2021/08/28 03:20:37;;;;;;;15.35;6.07;;;12.20;99.90;;;;;;4974317;28;20047;-80
2021/08/28 03:23:12;;;;;;;16.30;7.05;;;12.20;99.90;;;;;;4972551;28;20051;-81
2021/08/28 03:25:42;;;;;;;15.90;5.00;;;12.30;99.90;;;;;;4965192;28;20046;-81
2021/08/28 03:28:16;;;;;;;22.17;6.10;;;12.30;99.90;;;;;;4995203;28;20056;-81
2021/08/28 03:30:46;;;;;;;31.85;7.28;;;12.30;99.90;;;;;;4997239;28;20053;-81
2021/08/28 03:33:17;;;;;;;27.35;8.02;;;12.30;99.90;;;;;;4977235;28;20039;-81
2021/08/28 03:35:53;;;;;;;23.92;5.55;;;12.30;99.90;;;;;;4959570;28;20048;-82
2021/08/28 03:38:22;;;;;;;38.38;9.98;;;12.30;99.90;;;;;;4983955;28;20515;-81
2021/08/28 03:40:54;;;;;;;21.95;6.63;;;12.30;99.90;;;;;;4970573;28;20062;-81
2021/08/28 03:43:23;;;;;;;15.70;4.97;;;12.30;99.90;;;;;;4966673;28;20051;-81
2021/08/28 03:45:53;;;;;;;20.53;5.73;;;12.30;99.90;;;;;;4974101;28;20047;-81
2021/08/28 03:48:22;;;;;;;28.27;8.68;;;12.30;99.90;;;;;;4961765;28;20047;-80
2021/08/28 03:50:50;;;;;;;21.15;5.10;;;12.30;99.90;;;;;;4986943;28;20069;-80
2021/08/28 03:53:20;;;;;;;34.22;6.90;;;12.30;99.90;;;;;;4975358;28;20057;-81
2021/08/28 03:55:48;;;;;;;23.83;7.07;;;11.80;99.90;;;;;;4971802;28;20053;-81
2021/08/28 03:58:18;;;;;;;17.35;6.90;;;12.30;99.90;;;;;;4972919;28;20051;-81
2021/08/28 04:00:49;;;;;;;12.27;5.65;;;12.30;99.90;;;;;;4983076;28;20039;-80
2021/08/28 04:03:21;;;;;;;22.92;6.20;;;12.40;99.90;;;;;;4987613;28;20042;-81
2021/08/28 04:05:50;;;;;;;16.70;5.95;;;12.40;99.90;;;;;;4972738;28;20035;-81
2021/08/28 04:08:20;;;;;;;24.20;6.97;;;12.40;99.90;;;;;;4982052;28;20053;-81
2021/08/28 04:10:54;;;;;;;19.88;6.68;;;12.50;99.90;;;;;;4969305;28;20058;-81
2021/08/28 04:13:26;;;;;;;21.42;6.40;;;12.50;99.90;;;;;;4972965;28;20041;-81
2021/08/28 04:15:58;;;;;;;17.23;6.32;;;12.60;99.90;;;;;;4972389;28;20061;-80
2021/08/28 04:18:40;;;;;;;23.13;7.95;;;12.70;99.90;;;;;;4977992;28;20053;-81
2021/08/28 04:21:32;;;;;;;23.17;6.60;;;12.70;99.90;;;;;;4977766;28;20035;-81
2021/08/28 04:24:03;;;;;;;19.38;5.72;;;12.80;99.90;;;;;;4972292;28;20061;-80
2021/08/28 04:26:52;;;;;;;21.08;7.90;;;12.90;99.90;;;;;;4957271;28;20142;-80
2021/08/28 04:29:19;;;;;;;21.88;7.82;;;12.90;99.90;;;;;;4971409;28;20039;-81
2021/08/28 04:31:48;;;;;;;23.90;7.80;;;13.50;99.90;;;;;;4967098;28;20047;-80
2021/08/28 04:34:16;;;;;;;28.08;9.32;;;13.00;99.90;;;;;;4976913;28;20019;-80
2021/08/28 04:36:45;;;;;;;22.65;9.13;;;13.00;99.90;;;;;;5001363;28;20038;-80
2021/08/28 04:39:14;;;;;;;20.73;8.98;;;13.00;99.90;;;;;;4978267;28;20058;-81
2021/08/28 04:41:42;;;;;;;25.38;8.23;;;13.10;99.90;;;;;;4973391;28;20055;-81
2021/08/28 04:44:10;;;;;;;25.00;9.07;;;13.10;99.90;;;;;;4965914;28;20052;-81
2021/08/28 04:46:46;;;;;;;32.13;8.30;;;13.10;99.90;;;;;;4986707;28;20058;-81
2021/08/28 04:49:16;;;;;;;25.52;11.20;;;13.10;99.90;;;;;;4988846;28;20062;-81
2021/08/28 04:52:05;;;;;;;27.27;8.82;;;13.10;99.90;;;;;;4975370;28;20039;-80
2021/08/28 04:54:38;;;;;;;28.52;9.05;;;13.10;99.90;;;;;;4980907;28;20039;-82
2021/08/28 04:57:06;;;;;;;32.72;9.52;;;13.10;99.90;;;;;;4977133;28;20039;-81
2021/08/28 04:59:36;;;;;;;24.15;8.98;;;13.10;99.90;;;;;;4959768;28;20039;-81
2021/08/28 05:02:26;;;;;;;26.65;10.68;;;13.10;99.90;;;;;;4985031;28;20047;-81
2021/08/28 05:05:00;;;;;;;26.35;9.23;;;13.10;99.90;;;;;;4989008;28;20043;-80
2021/08/28 05:07:30;;;;;;;23.77;7.28;;;13.10;99.90;;;;;;4971707;28;20054;-80
2021/08/28 05:10:10;;;;;;;29.65;10.55;;;13.20;99.90;;;;;;4973527;28;20061;-81
2021/08/28 05:12:41;;;;;;;28.15;11.80;;;13.30;99.90;;;;;;4967489;28;20059;-79
2021/08/28 05:15:15;;;;;;;25.85;9.07;;;13.20;99.90;;;;;;4989020;28;20047;-81
2021/08/28 05:17:52;;;;;;;26.42;10.45;;;13.20;99.90;;;;;;4976502;28;20050;-80
2021/08/28 05:20:24;;;;;;;26.13;8.80;;;14.10;99.90;;;;;;4944823;28;20057;-81
2021/08/28 05:23:16;;;;;;;32.85;10.45;;;13.30;99.90;;;;;;4973597;28;20053;-80
2021/08/28 05:26:24;;;;;;;16.27;7.93;;;13.30;99.90;;;;;;4917025;29;20052;-81
2021/08/28 05:28:53;;;;;;;32.40;10.35;;;13.40;99.90;;;;;;4917169;29;20137;-80
2021/08/28 05:31:23;;;;;;;21.63;9.60;;;13.40;99.90;;;;;;4934930;28;20055;-80
2021/08/28 05:33:52;;;;;;;27.30;10.35;;;13.40;99.90;;;;;;4987409;28;20057;-80
2021/08/28 05:36:31;;;;;;;29.38;11.18;;;13.50;99.90;;;;;;4970868;28;20046;-81
2021/08/28 05:39:19;;;;;;;22.83;9.23;;;12.60;99.90;;;;;;4976446;28;20061;-80
2021/08/28 05:41:47;;;;;;;27.92;11.15;;;13.60;99.90;;;;;;4961733;28;20059;-79
2021/08/28 05:44:16;;;;;;;24.52;10.13;;;13.70;99.90;;;;;;4972577;28;20050;-81
2021/08/28 05:46:44;;;;;;;20.92;11.15;;;14.10;99.90;;;;;;4960277;28;20050;-81
2021/08/28 05:49:20;;;;;;;21.73;10.73;;;13.70;99.90;;;;;;4960841;28;20047;-80
2021/08/28 05:51:55;;;;;;;24.95;9.27;;;13.80;99.90;;;;;;4966253;28;20055;-81
2021/08/28 05:54:26;;;;;;;25.27;10.57;;;13.80;99.90;;;;;;4951991;28;20043;-80
2021/08/28 05:56:58;;;;;;;24.00;10.05;;;13.80;99.90;;;;;;4970856;28;20300;-80
2021/08/28 05:59:28;;;;;;;23.77;10.20;;;13.90;99.90;;;;;;4954383;28;20049;-81
2021/08/28 06:01:58;;;;;;;27.77;10.18;;;13.90;99.90;;;;;;4970193;28;20047;-81
2021/08/28 06:04:28;;;;;;;21.70;10.00;;;14.30;99.90;;;;;;4957689;28;20722;-81
2021/08/28 06:07:09;;;;;;;18.55;9.60;;;13.90;99.90;;;;;;4969373;28;20027;-80
2021/08/28 06:09:54;;;;;;;25.10;9.43;;;13.90;99.90;;;;;;4972964;28;20047;-80
2021/08/28 06:12:37;;;;;;;24.20;9.95;;;13.90;99.90;;;;;;4961354;28;20055;-81
2021/08/28 06:15:25;;;;;;;20.15;9.15;;;14.00;99.90;;;;;;4977884;28;20049;-80
2021/08/28 06:17:58;;;;;;;22.77;10.98;;;14.00;99.90;;;;;;4983976;28;20053;-80
2021/08/28 06:20:31;;;;;;;26.35;12.25;;;13.00;99.90;;;;;;4972601;28;20045;-80
2021/08/28 06:23:00;;;;;;;18.42;9.25;;;14.10;99.90;;;;;;4957312;28;20058;-81
2021/08/28 06:25:41;;;;;;;23.48;10.73;;;14.10;99.90;;;;;;4958719;28;20058;-81
2021/08/28 06:28:11;;;;;;;24.17;10.40;;;14.20;99.90;;;;;;4984518;28;20061;-80
2021/08/28 06:30:44;;;;;;;24.95;9.63;;;14.20;99.90;;;;;;4956223;29;20086;-80
2021/08/28 06:33:12;;;;;;;28.58;11.38;;;14.20;99.90;;;;;;4967703;28;20047;-80
2021/08/28 06:35:40;;;;;;;28.00;10.73;;;14.30;99.90;;;;;;4985520;28;20043;-81
2021/08/28 06:38:31;;;;;;;27.77;9.57;;;14.30;99.90;;;;;;4953461;28;20058;-81
2021/08/28 06:41:35;;;;;;;21.48;9.18;;;14.40;99.90;;;;;;4959033;28;20060;-81
2021/08/28 06:44:26;;;;;;;18.98;8.25;;;14.40;99.90;;;;;;4958766;28;20058;-81
2021/08/28 06:47:22;;;;;;;21.25;9.45;;;14.20;99.90;;;;;;4977086;28;20058;-82
2021/08/28 06:50:10;;;;;;;27.25;8.40;;;14.60;99.90;;;;;;4996304;28;20070;-81
2021/08/28 06:52:57;;;;;;;21.35;8.23;;;14.70;99.90;;;;;;4959099;28;20050;-82
2021/08/28 06:55:54;;;;;;;27.15;7.10;;;14.80;99.90;;;;;;4974520;28;20063;-81
2021/08/28 06:58:41;;;;;;;22.25;8.48;;;14.80;99.90;;;;;;4979877;28;20058;-81
2021/08/28 07:01:35;;;;;;;19.15;7.57;;;14.90;99.90;;;;;;4992167;28;20050;-81
2021/08/28 07:04:22;;;;;;;19.38;7.38;;;15.00;99.90;;;;;;4967650;28;20048;-81
2021/08/28 07:07:11;;;;;;;24.17;7.82;;;15.10;99.90;;;;;;4979586;28;20059;-81
2021/08/28 07:09:41;;;;;;;16.80;6.65;;;15.10;99.90;;;;;;4981395;28;20046;-81
2021/08/28 07:12:09;;;;;;;25.35;10.00;;;15.20;99.90;;;;;;4969890;28;20361;-81
2021/08/28 07:14:41;;;;;;;17.73;7.22;;;15.30;99.90;;;;;;4969187;28;20046;-81
2021/08/28 07:17:11;;;;;;;21.98;7.30;;;15.30;99.90;;;;;;4948922;28;20054;-80
2021/08/28 07:19:42;;;;;;;30.75;10.43;;;15.40;99.90;;;;;;4985532;28;20030;-81
2021/08/28 07:22:13;;;;;;;;;;;15.50;99.90;;;;;;4965126;28;20051;-80
2021/08/28 07:24:43;;;;;;;19.50;7.28;;;15.50;99.90;;;;;;4970142;28;19922;-80
2021/08/28 07:27:17;;;;;;;15.25;7.28;;;15.60;99.90;;;;;;4965835;28;20059;-81
2021/08/28 07:30:07;;;;;;;21.55;6.70;;;15.30;99.90;;;;;;4951176;28;20066;-81
2021/08/28 07:32:36;;;;;;;18.33;8.40;;;15.80;99.90;;;;;;4969244;28;20065;-80
2021/08/28 07:35:06;;;;;;;23.83;8.43;;;15.80;99.90;;;;;;4956888;28;20051;-80
2021/08/28 07:37:34;;;;;;;15.95;6.93;;;15.90;99.90;;;;;;4984474;28;20047;-80
2021/08/28 07:40:05;;;;;;;18.27;6.82;;;16.10;99.90;;;;;;4983110;28;20053;-80
2021/08/28 07:42:59;;;;;;;21.73;7.13;;;16.10;99.90;;;;;;4966566;28;20055;-81
2021/08/28 07:45:37;;;;;;;26.77;6.80;;;16.20;99.90;;;;;;4981842;28;20042;-80
2021/08/28 07:48:13;;;;;;;14.25;5.68;;;16.30;99.90;;;;;;4981077;28;20046;-82
2021/08/28 07:50:43;;;;;;;21.08;7.05;;;16.30;99.90;;;;;;4947239;29;20055;-80
2021/08/28 07:53:12;;;;;;;21.33;5.72;;;16.40;99.90;;;;;;4951466;29;20063;-81
2021/08/28 07:55:46;;;;;;;23.55;7.63;;;16.40;99.90;;;;;;4965767;28;20058;-80
2021/08/28 07:58:15;;;;;;;16.77;6.03;;;16.40;99.90;;;;;;4948531;29;20047;-81
2021/08/28 08:00:43;;;;;;;20.85;6.30;;;16.50;99.90;;;;;;4955990;28;20047;-81
2021/08/28 08:03:13;;;;;;;20.13;7.53;;;16.50;99.90;;;;;;4964321;28;20055;-82
2021/08/28 08:06:00;;;;;;;23.98;7.47;;;16.50;99.90;;;;;;4970070;28;20045;-81
2021/08/28 08:08:41;;;;;;;21.23;8.20;;;16.50;99.90;;;;;;4984097;28;20047;-82
2021/08/28 08:11:28;;;;;;;18.13;5.85;;;16.50;99.90;;;;;;4962648;28;20054;-81
2021/08/28 08:14:16;;;;;;;16.70;6.70;;;16.60;99.90;;;;;;4969794;28;20058;-80
2021/08/28 08:17:04;;;;;;;21.83;6.70;;;16.60;99.90;;;;;;4961497;28;20058;-82
2021/08/28 08:19:56;;;;;;;13.25;5.50;;;16.60;99.90;;;;;;4961408;28;20048;-80
2021/08/28 08:22:25;;;;;;;21.48;7.32;;;16.70;99.90;;;;;;4951311;29;20042;-81
2021/08/28 08:24:59;;;;;;;23.13;7.72;;;16.80;99.90;;;;;;4967238;28;20062;-80
2021/08/28 08:27:59;;;;;;;18.25;6.72;;;16.80;99.90;;;;;;4932755;28;20058;-81
2021/08/28 08:30:50;;;;;;;20.50;6.22;;;17.00;99.90;;;;;;4956941;28;20056;-81
2021/08/28 08:33:21;;;;;;;22.60;6.68;;;17.10;99.90;;;;;;4960294;28;20059;-81
2021/08/28 08:35:54;;;;;;;17.42;6.18;;;17.10;99.90;;;;;;4977268;28;20055;-81
2021/08/28 08:38:22;;;;;;;14.60;5.78;;;17.20;99.90;;;;;;4961610;28;20044;-81
2021/08/28 08:40:50;;;;;;;17.42;6.38;;;17.30;99.90;;;;;;4963488;28;20046;-81
2021/08/28 08:43:19;;;;;;;17.73;6.40;;;17.30;99.90;;;;;;4964707;28;20058;-81
2021/08/28 08:45:48;;;;;;;11.52;4.95;;;17.40;99.90;;;;;;4983465;28;20061;-81
2021/08/28 08:48:18;;;;;;;17.45;5.95;;;17.50;99.90;;;;;;4967699;28;20047;-81
2021/08/28 08:50:50;;;;;;;24.05;5.57;;;17.60;99.90;;;;;;4947362;28;20055;-81
2021/08/28 08:53:26;;;;;;;14.07;6.30;;;17.70;99.90;;;;;;4967271;28;20047;-81
2021/08/28 08:56:05;;;;;;;14.70;5.15;;;17.80;99.90;;;;;;4960795;28;20047;-81
2021/08/28 08:58:39;;;;;;;16.15;4.70;;;17.80;99.90;;;;;;4977181;28;20044;-81
2021/08/28 09:01:08;;;;;;;16.52;5.00;;;17.90;99.90;;;;;;4935977;28;20054;-82
2021/08/28 09:03:39;;;;;;;13.02;4.75;;;18.00;99.90;;;;;;4959059;28;20527;-81
2021/08/28 09:06:11;;;;;;;15.77;5.07;;;18.10;99.90;;;;;;4952241;28;20040;-81
2021/08/28 09:08:47;;;;;;;15.43;5.05;;;18.20;99.90;;;;;;4947897;28;20051;-81
2021/08/28 09:11:23;;;;;;;18.73;5.30;;;18.20;99.90;;;;;;4965356;28;20048;-82
2021/08/28 09:14:31;;;;;;;14.07;4.50;;;18.30;99.90;;;;;;4969080;28;20043;-82
2021/08/28 09:17:21;;;;;;;13.73;4.47;;;17.10;99.90;;;;;;4956994;28;20062;-80
2021/08/28 09:19:51;;;;;;;11.98;3.90;;;18.50;99.90;;;;;;4965692;28;20063;-81
2021/08/28 09:22:25;;;;;;;21.33;5.05;;;18.60;99.90;;;;;;4965901;28;20066;-81
2021/08/28 09:25:00;;;;;;;14.30;5.07;;;18.70;99.90;;;;;;4966333;28;20054;-82
2021/08/28 09:27:42;;;;;;;12.10;4.50;;;18.70;99.90;;;;;;4965910;28;20044;-82
2021/08/28 09:30:36;;;;;;;14.02;4.72;;;18.80;99.90;;;;;;4957436;28;20051;-82
2021/08/28 09:33:15;;;;;;;13.38;3.55;;;18.90;99.90;;;;;;4976510;28;20054;-81
2021/08/28 09:35:51;;;;;;;12.70;4.80;;;18.90;99.90;;;;;;4971347;28;20051;-80
2021/08/28 09:38:25;;;;;;;11.93;3.30;;;18.90;99.90;;;;;;4957328;28;20047;-81
2021/08/28 09:40:55;;;;;;;13.15;3.35;;;19.00;99.90;;;;;;4953089;28;20055;-82
2021/08/28 09:43:27;;;;;;;13.85;3.40;;;19.10;99.90;;;;;;4984498;28;20039;-81
2021/08/28 09:45:55;;;;;;;12.27;3.60;;;19.20;99.90;;;;;;4967932;28;20043;-82
2021/08/28 09:48:29;;;;;;;10.23;3.83;;;19.30;99.90;;;;;;4968215;28;20047;-82
2021/08/28 09:51:01;;;;;;;14.48;3.65;;;19.30;99.90;;;;;;4974666;28;20061;-81
2021/08/28 09:54:01;;;;;;;12.82;3.40;;;19.40;99.90;;;;;;4977019;28;20066;-82
2021/08/28 09:56:32;;;;;;;14.50;4.00;;;19.50;99.90;;;;;;4971129;28;20069;-80
2021/08/28 09:59:21;;;;;;;15.32;3.30;;;19.40;99.90;;;;;;4971315;28;20050;-81
2021/08/28 10:01:49;;;;;;;11.20;3.35;;;19.40;99.90;;;;;;4966980;28;20051;-81
2021/08/28 10:04:18;;;;;;;14.02;3.25;;;19.50;99.90;;;;;;4982255;28;20069;-81
2021/08/28 10:06:49;;;;;;;12.27;4.43;;;19.50;99.90;;;;;;4980708;28;20031;-81
2021/08/28 10:09:19;;;;;;;9.73;3.58;;;19.60;99.90;;;;;;4961173;28;20066;-81
2021/08/28 10:11:52;;;;;;;17.67;3.95;;;19.60;99.90;;;;;;4964589;28;20066;-81
2021/08/28 10:14:22;;;;;;;12.70;3.53;;;19.70;99.90;;;;;;4981388;28;20042;-81
2021/08/28 10:16:52;;;;;;;14.68;3.17;;;19.80;99.90;;;;;;4986688;28;20046;-81
2021/08/28 10:19:27;;;;;;;6.72;2.35;;;19.70;99.90;;;;;;4937352;28;20057;-81
2021/08/28 10:21:55;;;;;;;9.60;2.55;;;19.80;99.90;;;;;;4965951;28;20055;-81
2021/08/28 10:24:26;;;;;;;8.10;2.80;;;19.90;99.90;;;;;;4963418;28;20058;-81
2021/08/28 10:26:55;;;;;;;13.95;2.92;;;20.00;99.60;;;;;;4961527;28;20055;-82
2021/08/28 10:29:23;;;;;;;11.90;3.17;;;20.10;99.80;;;;;;4982370;28;20057;-81
2021/08/28 10:31:53;;;;;;;11.75;3.13;;;20.20;99.80;;;;;;4966664;28;20050;-81
2021/08/28 10:34:21;;;;;;;11.27;2.70;;;20.30;99.60;;;;;;4967309;28;20054;-81
2021/08/28 10:36:50;;;;;;;13.57;3.10;;;20.40;99.50;;;;;;4983560;28;20058;-81
2021/08/28 10:39:19;;;;;;;7.57;2.63;;;20.50;99.00;;;;;;4954120;28;20053;-83
2021/08/28 10:41:48;;;;;;;14.30;3.00;;;20.50;98.30;;;;;;4951602;28;20042;-82
2021/08/28 10:44:17;;;;;;;10.73;2.70;;;20.50;98.70;;;;;;4982572;28;20042;-82
2021/08/28 10:46:47;;;;;;;14.20;3.70;;;20.50;98.50;;;;;;4979747;28;20062;-81
2021/08/28 10:49:23;;;;;;;14.05;3.30;;;20.50;98.90;;;;;;4984855;28;20053;-82
2021/08/28 10:51:56;;;;;;;10.75;3.00;;;20.50;98.80;;;;;;4965187;28;20057;-82
2021/08/28 10:54:30;;;;;;;9.02;3.20;;;20.60;98.80;;;;;;4967082;28;20035;-80
2021/08/28 10:57:02;;;;;;;6.22;2.95;;;20.70;98.50;;;;;;4959225;28;20046;-83
2021/08/28 10:59:34;;;;;;;16.75;2.63;;;20.80;98.50;;;;;;4980761;28;20050;-83
2021/08/28 11:02:14;;;;;;;13.52;4.00;;;20.90;98.30;;;;;;4983914;28;20396;-82
2021/08/28 11:04:43;;;;;;;8.45;2.75;;;21.00;97.60;;;;;;4981297;28;20051;-82
2021/08/28 11:07:27;;;;;;;9.40;2.90;;;21.00;97.70;;;;;;4965031;28;20591;-81
2021/08/28 11:10:04;;;;;;;11.55;2.22;;;21.00;96.80;;;;;;4979405;28;20062;-81
2021/08/28 11:13:00;;;;;;;11.85;2.90;;;21.00;97.30;;;;;;4965322;28;20042;-83
2021/08/28 11:15:29;;;;;;;9.10;2.55;;;21.10;96.90;;;;;;4949222;28;20046;-83
2021/08/28 11:18:22;;;;;;;13.02;2.50;;;21.10;97.20;;;;;;4989054;28;20027;-84
2021/08/28 11:20:52;;;;;;;10.68;3.42;;;21.10;97.10;;;;;;4982335;28;20051;-84
2021/08/28 11:23:21;;;;;;;8.75;2.45;;;21.10;97.20;;;;;;4989340;28;20048;-82
2021/08/28 11:26:42;;;;;;;7.45;2.47;;;21.10;96.90;;;;;;4972673;29;20047;-83
2021/08/28 11:29:24;;;;;;;7.65;2.38;;;21.20;96.70;;;;;;4959530;28;20051;-80
2021/08/28 11:32:10;;;;;;;7.65;2.53;;;21.20;96.30;;;;;;4991406;28;20062;-82
2021/08/28 11:34:41;;;;;;;10.63;3.28;;;21.30;96.50;;;;;;4967326;28;20049;-81
2021/08/28 11:37:36;;;;;;;10.80;3.03;;;21.40;96.30;;;;;;4988118;28;20057;-81
2021/08/28 11:40:20;;;;;;;8.85;2.53;;;21.50;95.90;;;;;;4975399;28;20050;-83
2021/08/28 11:42:49;;;;;;;6.90;2.05;;;21.60;95.60;;;;;;4981348;28;20042;-80
2021/08/28 11:45:31;;;;;;;11.63;2.20;;;21.70;95.70;;;;;;4963165;28;20054;-81
2021/08/28 11:48:04;;;;;;;12.35;2.80;;;21.70;95.70;;;;;;4966323;28;20792;-83
2021/08/28 11:50:33;;;;;;;10.65;2.17;;;21.80;95.40;;;;;;4976619;28;20054;-84
2021/08/28 11:53:03;;;;;;;12.48;3.20;;;21.90;95.30;;;;;;4976564;28;20051;-83
2021/08/28 11:55:35;;;;;;;7.10;2.42;;;22.00;95.40;;;;;;4961233;28;20859;-83
2021/08/28 11:58:06;;;;;;;6.93;2.13;;;22.00;95.00;;;;;;4966069;28;20058;-83
2021/08/28 12:00:36;;;;;;;7.78;1.92;;;22.00;95.00;;;;;;4974594;28;20674;-82
2021/08/28 12:03:07;;;;;;;11.27;2.10;;;22.00;95.20;;;;;;4969392;28;20049;-82
2021/08/28 12:05:36;;;;;;;12.55;2.30;;;22.00;95.20;;;;;;4968242;28;20049;-82
2021/08/28 12:08:04;;;;;;;7.78;1.75;;;22.00;95.30;;;;;;4927577;28;20578;-82
2021/08/28 12:10:33;;;;;;;6.10;1.77;;;22.00;95.20;;;;;;4974593;28;20043;-84
2021/08/28 12:13:03;;;;;;;8.43;1.88;;;22.00;94.80;;;;;;4947172;28;20043;-83
2021/08/28 12:15:33;;;;;;;6.15;1.80;;;22.10;94.50;;;;;;4963631;28;20054;-85
2021/08/28 12:18:01;;;;;;;8.48;2.33;;;22.20;94.70;;;;;;4963904;28;20047;-83
2021/08/28 12:20:32;;;;;;;7.32;1.60;;;22.10;94.20;;;;;;4955806;28;20046;-82
2021/08/28 12:23:00;;;;;;;;;;;22.00;94.00;;;;;;4964816;28;20062;-82
2021/08/28 12:25:30;;;;;;;9.85;1.45;;;21.80;92.90;;;;;;4967438;28;19926;-83
2021/08/28 12:28:00;;;;;;;4.78;1.80;;;21.70;94.10;;;;;;4961137;28;20047;-83
2021/08/28 12:30:32;;;;;;;9.23;1.65;;;21.50;94.40;;;;;;4982232;28;20934;-86
2021/08/28 12:33:09;;;;;;;5.15;1.50;;;21.40;94.20;;;;;;4980912;28;20051;-81
2021/08/28 12:35:38;;;;;;;10.15;2.20;;;21.30;94.30;;;;;;4957773;28;20050;-82
2021/08/28 12:38:16;;;;;;;10.38;1.73;;;21.40;94.80;;;;;;4958698;28;20053;-83
2021/08/28 12:40:46;;;;;;;5.72;2.28;;;21.40;94.40;;;;;;4967059;28;20038;-80
2021/08/28 12:43:17;;;;;;;5.82;1.38;;;21.40;95.20;;;;;;4964594;28;20043;-81
2021/08/28 12:45:49;;;;;;;6.97;1.83;;;21.50;94.90;;;;;;4965998;28;20059;-83
2021/08/28 12:48:18;;;;;;;9.85;2.03;;;21.50;94.80;;;;;;4965432;28;20051;-80
2021/08/28 12:50:49;;;;;;;6.13;2.00;;;21.60;94.80;;;;;;4961789;28;20094;-83
2021/08/28 12:53:17;;;;;;;7.07;1.20;;;21.70;94.80;;;;;;4976998;28;20055;-83
2021/08/28 12:55:49;;;;;;;5.65;1.90;;;21.80;94.60;;;;;;4976447;28;20292;-81
2021/08/28 12:58:23;;;;;;;9.30;1.30;;;21.90;93.80;;;;;;4981123;28;20066;-81
2021/08/28 13:00:51;;;;;;;5.70;1.90;;;22.00;94.00;;;;;;4987222;28;20057;-81
2021/08/28 13:03:29;;;;;;;5.88;1.92;;;22.00;94.00;;;;;;4986810;28;20042;-80
2021/08/28 13:05:59;;;;;;;7.90;1.83;;;22.00;94.00;;;;;;4980722;28;20054;-79
2021/08/28 13:08:35;;;;;;;6.53;1.88;;;22.10;94.20;;;;;;4981637;28;20046;-83
2021/08/28 13:11:20;;;;;;;8.55;2.33;;;22.10;94.00;;;;;;4965158;28;20055;-82
2021/08/28 13:14:07;;;;;;;6.47;1.75;;;22.10;93.70;;;;;;4964555;28;20054;-84
2021/08/28 13:16:36;;;;;;;8.88;1.83;;;22.30;94.00;;;;;;4988013;28;20068;-84
2021/08/28 13:19:09;;;;;;;6.55;1.63;;;22.40;93.80;;;;;;4962492;28;20046;-81